sensor_id;sensor_type;location;lat;lon;timestamp;temperature;humidity
29173;DHT22;16223;47.966;-1.616;2022-12-18T00:00:59;-3.6;94
29173;DHT22;16223;47.966;-1.616;2022-12-18T00:01:59;-3.6;94
29173;DHT22;16223;47.966;-1.616;2022-12-18T00:02:58;-3.6;94
29173;DHT22;16223;47.966;-1.616;2022-12-18T00:03:59;-3.6;94
29173;DHT22;16223;47.966;-1.616;2022-12-18T00:04:58;-3.6;94
29173;DHT22;16223;47.966;-1.616;2022-12-18T00:05:58;-3.6;94
29173;DHT22;16223;47.966;-1.616;2022-12-18T00:06:58;-3.6;94
29173;DHT22;16223;47.966;-1.616;2022-12-18T00:07:58;-3.6;94
29173;DHT22;16223;47.966;-1.616;2022-12-18T00:09:00;-3.6;94
29173;DHT22;16223;47.966;-1.616;2022-12-18T00:09:58;-3.8;94
29173;DHT22;16223;47.966;-1.616;2022-12-18T00:11:05;-3.8;94
29173;DHT22;16223;47.966;-1.616;2022-12-18T00:11:59;-3.8;94
29173;DHT22;16223;47.966;-1.616;2022-12-18T00:12:59;-3.8;94
29173;DHT22;16223;47.966;-1.616;2022-12-18T00:14:00;-3.8;94
29173;DHT22;16223;47.966;-1.616;2022-12-18T00:15:04;-3.8;94
29173;DHT22;16223;47.966;-1.616;2022-12-18T00:16:04;-3.8;94
29173;DHT22;16223;47.966;-1.616;2022-12-18T00:16:59;-3.8;94
29173;DHT22;16223;47.966;-1.616;2022-12-18T00:17:58;-3.8;94
29173;DHT22;16223;47.966;-1.616;2022-12-18T00:18:58;-3.8;94
29173;DHT22;16223;47.966;-1.616;2022-12-18T00:19:59;-3.8;94
29173;DHT22;16223;47.966;-1.616;2022-12-18T00:21:01;-3.8;94
29173;DHT22;16223;47.966;-1.616;2022-12-18T00:21:59;-3.8;94
29173;DHT22;16223;47.966;-1.616;2022-12-18T00:22:59;-3.8;94
29173;DHT22;16223;47.966;-1.616;2022-12-18T00:23:59;-3.8;94
29173;DHT22;16223;47.966;-1.616;2022-12-18T00:24:58;-3.8;95
29173;DHT22;16223;47.966;-1.616;2022-12-18T00:26:01;-3.8;95
29173;DHT22;16223;47.966;-1.616;2022-12-18T00:26:58;-3.8;95
29173;DHT22;16223;47.966;-1.616;2022-12-18T00:27:58;-3.8;95
29173;DHT22;16223;47.966;-1.616;2022-12-18T00:29:03;-3.8;95
29173;DHT22;16223;47.966;-1.616;2022-12-18T00:29:59;-3.8;95
29173;DHT22;16223;47.966;-1.616;2022-12-18T00:31:02;-3.8;95
29173;DHT22;16223;47.966;-1.616;2022-12-18T00:31:59;-3.8;95
29173;DHT22;16223;47.966;-1.616;2022-12-18T00:32:59;-3.8;95
29173;DHT22;16223;47.966;-1.616;2022-12-18T00:33:59;-3.8;95
29173;DHT22;16223;47.966;-1.616;2022-12-18T00:34:59;-3.8;95
29173;DHT22;16223;47.966;-1.616;2022-12-18T00:36:03;-3.8;95
29173;DHT22;16223;47.966;-1.616;2022-12-18T00:36:58;-3.8;95
29173;DHT22;16223;47.966;-1.616;2022-12-18T00:38:00;-3.8;95
29173;DHT22;16223;47.966;-1.616;2022-12-18T00:39:02;-3.8;95
29173;DHT22;16223;47.966;-1.616;2022-12-18T00:39:58;-3.8;95
29173;DHT22;16223;47.966;-1.616;2022-12-18T00:40:58;-3.8;95
29173;DHT22;16223;47.966;-1.616;2022-12-18T00:41:58;-3.8;95
29173;DHT22;16223;47.966;-1.616;2022-12-18T00:42:59;-3.8;95
29173;DHT22;16223;47.966;-1.616;2022-12-18T00:43:58;-3.8;95
29173;DHT22;16223;47.966;-1.616;2022-12-18T00:44:57;-3.8;95
29173;DHT22;16223;47.966;-1.616;2022-12-18T00:45:58;-3.8;95
29173;DHT22;16223;47.966;-1.616;2022-12-18T00:47:01;-3.8;95
29173;DHT22;16223;47.966;-1.616;2022-12-18T00:47:59;-3.8;95
29173;DHT22;16223;47.966;-1.616;2022-12-18T00:48:59;-3.8;95
29173;DHT22;16223;47.966;-1.616;2022-12-18T00:49:58;-3.8;95
29173;DHT22;16223;47.966;-1.616;2022-12-18T00:50:58;-3.8;95
29173;DHT22;16223;47.966;-1.616;2022-12-18T00:51:59;-3.8;95
29173;DHT22;16223;47.966;-1.616;2022-12-18T00:52:59;-3.8;95
29173;DHT22;16223;47.966;-1.616;2022-12-18T00:53:59;-3.8;95
29173;DHT22;16223;47.966;-1.616;2022-12-18T00:54:58;-3.8;95
29173;DHT22;16223;47.966;-1.616;2022-12-18T00:55:58;-3.8;95
29173;DHT22;16223;47.966;-1.616;2022-12-18T00:56:58;-3.8;95
29173;DHT22;16223;47.966;-1.616;2022-12-18T00:57:58;-3.8;95
29173;DHT22;16223;47.966;-1.616;2022-12-18T00:58:58;-3.8;95
29173;DHT22;16223;47.966;-1.616;2022-12-18T00:59:59;-3.8;95
29173;DHT22;16223;47.966;-1.616;2022-12-18T01:00:59;-3.8;95
29173;DHT22;16223;47.966;-1.616;2022-12-18T01:02:00;-3.8;95
29173;DHT22;16223;47.966;-1.616;2022-12-18T01:02:59;-3.8;95
29173;DHT22;16223;47.966;-1.616;2022-12-18T01:03:59;-3.8;95
29173;DHT22;16223;47.966;-1.616;2022-12-18T01:04:58;-3.8;95
29173;DHT22;16223;47.966;-1.616;2022-12-18T01:05:59;-3.8;95
29173;DHT22;16223;47.966;-1.616;2022-12-18T01:06:58;-3.8;95
29173;DHT22;16223;47.966;-1.616;2022-12-18T01:07:59;-3.8;95
29173;DHT22;16223;47.966;-1.616;2022-12-18T01:08:58;-3.8;95
29173;DHT22;16223;47.966;-1.616;2022-12-18T01:09:58;-3.8;95
29173;DHT22;16223;47.966;-1.616;2022-12-18T01:10:58;-3.8;95
29173;DHT22;16223;47.966;-1.616;2022-12-18T01:11:59;-3.8;95
29173;DHT22;16223;47.966;-1.616;2022-12-18T01:12:58;-3.8;95
29173;DHT22;16223;47.966;-1.616;2022-12-18T01:14:05;-3.8;95
29173;DHT22;16223;47.966;-1.616;2022-12-18T01:14:58;-3.8;95
29173;DHT22;16223;47.966;-1.616;2022-12-18T01:15:59;-3.5;94
29173;DHT22;16223;47.966;-1.616;2022-12-18T01:16:58;-3.5;94
29173;DHT22;16223;47.966;-1.616;2022-12-18T01:18:09;-3.5;94
29173;DHT22;16223;47.966;-1.616;2022-12-18T01:18:58;-3.5;94
29173;DHT22;16223;47.966;-1.616;2022-12-18T01:20:10;-3.5;94
29173;DHT22;16223;47.966;-1.616;2022-12-18T01:20:58;-3.5;94
29173;DHT22;16223;47.966;-1.616;2022-12-18T01:21:59;-3.5;94
29173;DHT22;16223;47.966;-1.616;2022-12-18T01:22:58;-3.5;94
29173;DHT22;16223;47.966;-1.616;2022-12-18T01:23:59;-3.5;94
29173;DHT22;16223;47.966;-1.616;2022-12-18T01:24:59;-3.5;94
29173;DHT22;16223;47.966;-1.616;2022-12-18T01:26:03;-3.5;94
29173;DHT22;16223;47.966;-1.616;2022-12-18T01:26:58;-3.5;94
29173;DHT22;16223;47.966;-1.616;2022-12-18T01:27:58;-3.5;94
29173;DHT22;16223;47.966;-1.616;2022-12-18T01:28:58;-3.5;94
29173;DHT22;16223;47.966;-1.616;2022-12-18T01:29:58;-3.5;94
29173;DHT22;16223;47.966;-1.616;2022-12-18T01:31:08;-3.5;94
29173;DHT22;16223;47.966;-1.616;2022-12-18T01:31:59;-3.5;94
29173;DHT22;16223;47.966;-1.616;2022-12-18T01:32:59;-3.5;94
29173;DHT22;16223;47.966;-1.616;2022-12-18T01:33:59;-3.5;94
29173;DHT22;16223;47.966;-1.616;2022-12-18T01:34:58;-3.5;94
29173;DHT22;16223;47.966;-1.616;2022-12-18T01:35:58;-3.5;94
29173;DHT22;16223;47.966;-1.616;2022-12-18T01:36:59;-3.5;94
29173;DHT22;16223;47.966;-1.616;2022-12-18T01:37:58;-3.5;94
29173;DHT22;16223;47.966;-1.616;2022-12-18T01:39:00;-3.5;94
29173;DHT22;16223;47.966;-1.616;2022-12-18T01:39:58;-3.5;94
29173;DHT22;16223;47.966;-1.616;2022-12-18T01:41:00;-3.5;94
29173;DHT22;16223;47.966;-1.616;2022-12-18T01:41:59;-3.5;94
29173;DHT22;16223;47.966;-1.616;2022-12-18T01:42:58;-3.5;94
29173;DHT22;16223;47.966;-1.616;2022-12-18T01:43:59;-3.5;94
29173;DHT22;16223;47.966;-1.616;2022-12-18T01:45:02;-3.5;94
29173;DHT22;16223;47.966;-1.616;2022-12-18T01:46:01;-3.5;94
29173;DHT22;16223;47.966;-1.616;2022-12-18T01:46:59;-3.5;94
29173;DHT22;16223;47.966;-1.616;2022-12-18T01:48:02;-3.5;94
29173;DHT22;16223;47.966;-1.616;2022-12-18T01:49:00;-3.5;94
29173;DHT22;16223;47.966;-1.616;2022-12-18T01:50:03;-3.5;94
29173;DHT22;16223;47.966;-1.616;2022-12-18T01:50:58;-3.5;94
29173;DHT22;16223;47.966;-1.616;2022-12-18T01:51:58;-3.5;94
29173;DHT22;16223;47.966;-1.616;2022-12-18T01:53:02;-3.5;94
29173;DHT22;16223;47.966;-1.616;2022-12-18T01:53:59;-3.5;94
29173;DHT22;16223;47.966;-1.616;2022-12-18T01:54:58;-3.5;94
29173;DHT22;16223;47.966;-1.616;2022-12-18T01:55:59;-3.5;94
29173;DHT22;16223;47.966;-1.616;2022-12-18T01:56:58;-3.5;94
29173;DHT22;16223;47.966;-1.616;2022-12-18T01:57:59;-3.5;94
29173;DHT22;16223;47.966;-1.616;2022-12-18T01:59:02;-3.5;94
29173;DHT22;16223;47.966;-1.616;2022-12-18T02:00:06;-3.5;94
29173;DHT22;16223;47.966;-1.616;2022-12-18T02:00:58;-3.5;94
29173;DHT22;16223;47.966;-1.616;2022-12-18T02:01:59;-3.5;94
29173;DHT22;16223;47.966;-1.616;2022-12-18T02:02:58;-3.5;94
29173;DHT22;16223;47.966;-1.616;2022-12-18T02:04:20;-3.5;94
29173;DHT22;16223;47.966;-1.616;2022-12-18T02:04:58;-3.5;94
29173;DHT22;16223;47.966;-1.616;2022-12-18T02:06:05;-3.5;94
29173;DHT22;16223;47.966;-1.616;2022-12-18T02:07:04;-3.5;94
29173;DHT22;16223;47.966;-1.616;2022-12-18T02:08:08;-3.5;94
29173;DHT22;16223;47.966;-1.616;2022-12-18T02:09:06;-3.5;94
29173;DHT22;16223;47.966;-1.616;2022-12-18T02:10:03;-3.5;94
29173;DHT22;16223;47.966;-1.616;2022-12-18T02:11:05;-3.5;94
29173;DHT22;16223;47.966;-1.616;2022-12-18T02:12:04;-3.5;94
29173;DHT22;16223;47.966;-1.616;2022-12-18T02:13:06;-3.5;94
29173;DHT22;16223;47.966;-1.616;2022-12-18T02:14:03;-3.6;95
29173;DHT22;16223;47.966;-1.616;2022-12-18T02:15:05;-3.6;95
29173;DHT22;16223;47.966;-1.616;2022-12-18T02:16:02;-3.6;95
29173;DHT22;16223;47.966;-1.616;2022-12-18T02:17:02;-3.6;95
29173;DHT22;16223;47.966;-1.616;2022-12-18T02:18:02;-3.6;95
29173;DHT22;16223;47.966;-1.616;2022-12-18T02:19:00;-3.6;95
29173;DHT22;16223;47.966;-1.616;2022-12-18T02:20:08;-3.6;95
29173;DHT22;16223;47.966;-1.616;2022-12-18T02:21:07;-3.6;95
29173;DHT22;16223;47.966;-1.616;2022-12-18T02:22:06;-3.6;95
29173;DHT22;16223;47.966;-1.616;2022-12-18T02:23:08;-3.6;95
29173;DHT22;16223;47.966;-1.616;2022-12-18T02:24:10;-3.6;95
29173;DHT22;16223;47.966;-1.616;2022-12-18T02:25:12;-3.6;95
29173;DHT22;16223;47.966;-1.616;2022-12-18T02:26:12;-3.6;95
29173;DHT22;16223;47.966;-1.616;2022-12-18T02:27:01;-3.6;95
29173;DHT22;16223;47.966;-1.616;2022-12-18T02:28:02;-3.6;95
29173;DHT22;16223;47.966;-1.616;2022-12-18T02:29:04;-3.6;95
29173;DHT22;16223;47.966;-1.616;2022-12-18T02:30:00;-3.6;95
29173;DHT22;16223;47.966;-1.616;2022-12-18T02:31:02;-3.6;95
29173;DHT22;16223;47.966;-1.616;2022-12-18T02:32:00;-3.6;95
29173;DHT22;16223;47.966;-1.616;2022-12-18T02:32:59;-3.6;95
29173;DHT22;16223;47.966;-1.616;2022-12-18T02:34:01;-3.6;95
29173;DHT22;16223;47.966;-1.616;2022-12-18T02:34:59;-3.6;95
29173;DHT22;16223;47.966;-1.616;2022-12-18T02:35:59;-3.6;95
29173;DHT22;16223;47.966;-1.616;2022-12-18T02:37:00;-3.6;95
29173;DHT22;16223;47.966;-1.616;2022-12-18T02:37:59;-3.6;95
29173;DHT22;16223;47.966;-1.616;2022-12-18T02:39:00;-3.6;95
29173;DHT22;16223;47.966;-1.616;2022-12-18T02:39:59;-3.6;95
29173;DHT22;16223;47.966;-1.616;2022-12-18T02:40:59;-3.6;95
29173;DHT22;16223;47.966;-1.616;2022-12-18T02:41:59;-3.6;95
29173;DHT22;16223;47.966;-1.616;2022-12-18T02:43:07;-3.6;95
29173;DHT22;16223;47.966;-1.616;2022-12-18T02:44:00;-3.6;95
29173;DHT22;16223;47.966;-1.616;2022-12-18T02:44:59;-3.6;95
29173;DHT22;16223;47.966;-1.616;2022-12-18T02:46:00;-3.6;95
29173;DHT22;16223;47.966;-1.616;2022-12-18T02:46:59;-3.6;95
29173;DHT22;16223;47.966;-1.616;2022-12-18T02:47:59;-3.6;95
29173;DHT22;16223;47.966;-1.616;2022-12-18T02:49:06;-3.6;95
29173;DHT22;16223;47.966;-1.616;2022-12-18T02:50:07;-3.6;95
29173;DHT22;16223;47.966;-1.616;2022-12-18T02:51:03;-3.6;95
29173;DHT22;16223;47.966;-1.616;2022-12-18T02:52:05;-3.6;95
29173;DHT22;16223;47.966;-1.616;2022-12-18T02:53:09;-3.6;95
29173;DHT22;16223;47.966;-1.616;2022-12-18T02:54:03;-3.6;95
29173;DHT22;16223;47.966;-1.616;2022-12-18T02:55:08;-3.6;95
29173;DHT22;16223;47.966;-1.616;2022-12-18T02:56:04;-3.6;95
29173;DHT22;16223;47.966;-1.616;2022-12-18T02:57:02;-3.6;95
29173;DHT22;16223;47.966;-1.616;2022-12-18T02:58:02;-3.6;95
29173;DHT22;16223;47.966;-1.616;2022-12-18T02:59:02;-3.6;95
29173;DHT22;16223;47.966;-1.616;2022-12-18T03:00:03;-3.6;95
29173;DHT22;16223;47.966;-1.616;2022-12-18T03:01:01;-3.6;95
29173;DHT22;16223;47.966;-1.616;2022-12-18T03:02:11;-3.6;95
29173;DHT22;16223;47.966;-1.616;2022-12-18T03:03:02;-3.6;95
29173;DHT22;16223;47.966;-1.616;2022-12-18T03:04:04;-3.6;95
29173;DHT22;16223;47.966;-1.616;2022-12-18T03:05:02;-3.6;95
29173;DHT22;16223;47.966;-1.616;2022-12-18T03:06:03;-3.6;95
29173;DHT22;16223;47.966;-1.616;2022-12-18T03:07:01;-3.6;95
29173;DHT22;16223;47.966;-1.616;2022-12-18T03:08:01;-3.6;95
29173;DHT22;16223;47.966;-1.616;2022-12-18T03:09:02;-3.5;95
29173;DHT22;16223;47.966;-1.616;2022-12-18T03:09:59;-3.5;95
29173;DHT22;16223;47.966;-1.616;2022-12-18T03:11:01;-3.5;95
29173;DHT22;16223;47.966;-1.616;2022-12-18T03:12:14;-3.5;95
29173;DHT22;16223;47.966;-1.616;2022-12-18T03:13:02;-3.5;95
29173;DHT22;16223;47.966;-1.616;2022-12-18T03:13:59;-3.5;95
29173;DHT22;16223;47.966;-1.616;2022-12-18T03:15:02;-3.5;95
29173;DHT22;16223;47.966;-1.616;2022-12-18T03:15:59;-3.5;95
29173;DHT22;16223;47.966;-1.616;2022-12-18T03:17:03;-3.5;95
29173;DHT22;16223;47.966;-1.616;2022-12-18T03:18:02;-3.5;95
29173;DHT22;16223;47.966;-1.616;2022-12-18T03:19:01;-3.5;95
29173;DHT22;16223;47.966;-1.616;2022-12-18T03:20:03;-3.5;95
29173;DHT22;16223;47.966;-1.616;2022-12-18T03:21:02;-3.5;95
29173;DHT22;16223;47.966;-1.616;2022-12-18T03:22:00;-3.5;95
29173;DHT22;16223;47.966;-1.616;2022-12-18T03:23:03;-3.3;95
29173;DHT22;16223;47.966;-1.616;2022-12-18T03:23:59;-3.3;95
29173;DHT22;16223;47.966;-1.616;2022-12-18T03:24:59;-3.3;95
29173;DHT22;16223;47.966;-1.616;2022-12-18T03:26:02;-3.3;95
29173;DHT22;16223;47.966;-1.616;2022-12-18T03:27:02;-3.3;95
29173;DHT22;16223;47.966;-1.616;2022-12-18T03:28:01;-3.3;95
29173;DHT22;16223;47.966;-1.616;2022-12-18T03:29:03;-3.3;95
29173;DHT22;16223;47.966;-1.616;2022-12-18T03:30:04;-3.3;95
29173;DHT22;16223;47.966;-1.616;2022-12-18T03:31:01;-3.3;95
29173;DHT22;16223;47.966;-1.616;2022-12-18T03:32:01;-3.3;95
29173;DHT22;16223;47.966;-1.616;2022-12-18T03:33:02;-3.3;95
29173;DHT22;16223;47.966;-1.616;2022-12-18T03:34:01;-3.3;95
29173;DHT22;16223;47.966;-1.616;2022-12-18T03:35:03;-3.3;95
29173;DHT22;16223;47.966;-1.616;2022-12-18T03:35:58;-3.3;95
29173;DHT22;16223;47.966;-1.616;2022-12-18T03:36:59;-3.3;95
29173;DHT22;16223;47.966;-1.616;2022-12-18T03:37:58;-3.3;95
29173;DHT22;16223;47.966;-1.616;2022-12-18T03:38:58;-3.3;95
29173;DHT22;16223;47.966;-1.616;2022-12-18T03:39:59;-3.3;95
29173;DHT22;16223;47.966;-1.616;2022-12-18T03:41:03;-3.3;95
29173;DHT22;16223;47.966;-1.616;2022-12-18T03:42:04;-3.3;95
29173;DHT22;16223;47.966;-1.616;2022-12-18T03:43:03;-3.3;95
29173;DHT22;16223;47.966;-1.616;2022-12-18T03:44:05;-3.3;95
29173;DHT22;16223;47.966;-1.616;2022-12-18T03:45:02;-3.3;95
29173;DHT22;16223;47.966;-1.616;2022-12-18T03:46:05;-3.3;95
29173;DHT22;16223;47.966;-1.616;2022-12-18T03:47:05;-3.3;95
29173;DHT22;16223;47.966;-1.616;2022-12-18T03:48:03;-3.3;95
29173;DHT22;16223;47.966;-1.616;2022-12-18T03:49:04;-3.3;95
29173;DHT22;16223;47.966;-1.616;2022-12-18T03:50:03;-3.3;95
29173;DHT22;16223;47.966;-1.616;2022-12-18T03:51:00;-3.3;95
29173;DHT22;16223;47.966;-1.616;2022-12-18T03:52:03;-3.3;95
29173;DHT22;16223;47.966;-1.616;2022-12-18T03:53:01;-3.3;95
29173;DHT22;16223;47.966;-1.616;2022-12-18T03:54:01;-2.8;94
29173;DHT22;16223;47.966;-1.616;2022-12-18T03:55:00;-2.8;94
29173;DHT22;16223;47.966;-1.616;2022-12-18T03:56:00;-2.8;94
29173;DHT22;16223;47.966;-1.616;2022-12-18T03:57:03;-2.8;94
29173;DHT22;16223;47.966;-1.616;2022-12-18T03:57:59;-2.8;94
29173;DHT22;16223;47.966;-1.616;2022-12-18T03:59:00;-2.8;94
29173;DHT22;16223;47.966;-1.616;2022-12-18T04:00:07;-2.8;94
29173;DHT22;16223;47.966;-1.616;2022-12-18T04:01:02;-2.8;94
29173;DHT22;16223;47.966;-1.616;2022-12-18T04:01:59;-2.8;94
29173;DHT22;16223;47.966;-1.616;2022-12-18T04:02:59;-2.8;94
29173;DHT22;16223;47.966;-1.616;2022-12-18T04:04:11;-2.8;94
29173;DHT22;16223;47.966;-1.616;2022-12-18T04:05:01;-2.8;94
29173;DHT22;16223;47.966;-1.616;2022-12-18T04:06:00;-2.8;94
29173;DHT22;16223;47.966;-1.616;2022-12-18T04:06:59;-2.8;94
29173;DHT22;16223;47.966;-1.616;2022-12-18T04:07:59;-2.8;94
29173;DHT22;16223;47.966;-1.616;2022-12-18T04:08:58;-2.7;94
29173;DHT22;16223;47.966;-1.616;2022-12-18T04:10:01;-2.7;94
29173;DHT22;16223;47.966;-1.616;2022-12-18T04:10:59;-2.7;94
29173;DHT22;16223;47.966;-1.616;2022-12-18T04:11:59;-2.7;94
29173;DHT22;16223;47.966;-1.616;2022-12-18T04:12:59;-2.7;94
29173;DHT22;16223;47.966;-1.616;2022-12-18T04:13:59;-2.7;94
29173;DHT22;16223;47.966;-1.616;2022-12-18T04:14:59;-2.7;94
29173;DHT22;16223;47.966;-1.616;2022-12-18T04:15:59;-2.7;94
29173;DHT22;16223;47.966;-1.616;2022-12-18T04:16:59;-2.7;94
29173;DHT22;16223;47.966;-1.616;2022-12-18T04:17:58;-2.7;94
29173;DHT22;16223;47.966;-1.616;2022-12-18T04:18:58;-2.7;94
29173;DHT22;16223;47.966;-1.616;2022-12-18T04:19:58;-2.7;94
29173;DHT22;16223;47.966;-1.616;2022-12-18T04:20:59;-2.7;94
29173;DHT22;16223;47.966;-1.616;2022-12-18T04:21:58;-2.7;94
29173;DHT22;16223;47.966;-1.616;2022-12-18T04:22:58;-2.7;94
29173;DHT22;16223;47.966;-1.616;2022-12-18T04:23:59;-2.7;94
29173;DHT22;16223;47.966;-1.616;2022-12-18T04:24:59;-2.7;94
29173;DHT22;16223;47.966;-1.616;2022-12-18T04:25:58;-2.7;94
29173;DHT22;16223;47.966;-1.616;2022-12-18T04:26:58;-2.7;94
29173;DHT22;16223;47.966;-1.616;2022-12-18T04:27:59;-2.7;94
29173;DHT22;16223;47.966;-1.616;2022-12-18T04:28:58;-2.7;94
29173;DHT22;16223;47.966;-1.616;2022-12-18T04:29:59;-2.7;94
29173;DHT22;16223;47.966;-1.616;2022-12-18T04:30:59;-2.7;94
29173;DHT22;16223;47.966;-1.616;2022-12-18T04:31:59;-2.7;94
29173;DHT22;16223;47.966;-1.616;2022-12-18T04:32:58;-2.7;94
29173;DHT22;16223;47.966;-1.616;2022-12-18T04:33:58;-2.7;94
29173;DHT22;16223;47.966;-1.616;2022-12-18T04:34:58;-2.7;94
29173;DHT22;16223;47.966;-1.616;2022-12-18T04:35:58;-2.7;94
29173;DHT22;16223;47.966;-1.616;2022-12-18T04:36:59;-2.7;94
29173;DHT22;16223;47.966;-1.616;2022-12-18T04:37:58;-2.7;94
29173;DHT22;16223;47.966;-1.616;2022-12-18T04:38:58;-2.7;94
29173;DHT22;16223;47.966;-1.616;2022-12-18T04:39:59;-2.7;94
29173;DHT22;16223;47.966;-1.616;2022-12-18T04:40:58;-2.7;94
29173;DHT22;16223;47.966;-1.616;2022-12-18T04:41:58;-2.7;94
29173;DHT22;16223;47.966;-1.616;2022-12-18T04:42:58;-2.7;94
29173;DHT22;16223;47.966;-1.616;2022-12-18T04:43:58;-2.7;94
29173;DHT22;16223;47.966;-1.616;2022-12-18T04:44:59;-2.3;94
29173;DHT22;16223;47.966;-1.616;2022-12-18T04:46:04;-2.3;94
29173;DHT22;16223;47.966;-1.616;2022-12-18T04:46:59;-2.3;94
29173;DHT22;16223;47.966;-1.616;2022-12-18T04:47:58;-2.3;94
29173;DHT22;16223;47.966;-1.616;2022-12-18T04:48:59;-2.3;94
29173;DHT22;16223;47.966;-1.616;2022-12-18T04:49:59;-2.3;94
29173;DHT22;16223;47.966;-1.616;2022-12-18T04:50:59;-2.3;94
29173;DHT22;16223;47.966;-1.616;2022-12-18T04:51:59;-2.3;94
29173;DHT22;16223;47.966;-1.616;2022-12-18T04:52:59;-2.3;94
29173;DHT22;16223;47.966;-1.616;2022-12-18T04:53:59;-2.3;94
29173;DHT22;16223;47.966;-1.616;2022-12-18T04:54:58;-2.3;94
29173;DHT22;16223;47.966;-1.616;2022-12-18T04:56:08;-2.3;94
29173;DHT22;16223;47.966;-1.616;2022-12-18T04:56:58;-2.3;94
29173;DHT22;16223;47.966;-1.616;2022-12-18T04:57:58;-2.3;94
29173;DHT22;16223;47.966;-1.616;2022-12-18T04:58:58;-2.3;94
29173;DHT22;16223;47.966;-1.616;2022-12-18T04:59:58;-2.3;94
29173;DHT22;16223;47.966;-1.616;2022-12-18T05:00:59;-2.3;94
29173;DHT22;16223;47.966;-1.616;2022-12-18T05:01:59;-2.3;94
29173;DHT22;16223;47.966;-1.616;2022-12-18T05:03:00;-2.3;94
29173;DHT22;16223;47.966;-1.616;2022-12-18T05:03:58;-2.3;94
29173;DHT22;16223;47.966;-1.616;2022-12-18T05:04:58;-2.3;94
29173;DHT22;16223;47.966;-1.616;2022-12-18T05:05:59;-2.2;94
29173;DHT22;16223;47.966;-1.616;2022-12-18T05:06:58;-2.2;94
29173;DHT22;16223;47.966;-1.616;2022-12-18T05:07:58;-2.2;94
29173;DHT22;16223;47.966;-1.616;2022-12-18T05:08:59;-2.2;94
29173;DHT22;16223;47.966;-1.616;2022-12-18T05:09:59;-2.2;94
29173;DHT22;16223;47.966;-1.616;2022-12-18T05:11:03;-2.2;94
29173;DHT22;16223;47.966;-1.616;2022-12-18T05:11:58;-2.2;94
29173;DHT22;16223;47.966;-1.616;2022-12-18T05:12:58;-2.2;94
29173;DHT22;16223;47.966;-1.616;2022-12-18T05:13:58;-2.2;94
29173;DHT22;16223;47.966;-1.616;2022-12-18T05:14:58;-2.2;94
29173;DHT22;16223;47.966;-1.616;2022-12-18T05:15:59;-2.2;94
29173;DHT22;16223;47.966;-1.616;2022-12-18T05:16:59;-2.2;94
29173;DHT22;16223;47.966;-1.616;2022-12-18T05:17:59;-2.2;94
29173;DHT22;16223;47.966;-1.616;2022-12-18T05:18:59;-2.2;94
29173;DHT22;16223;47.966;-1.616;2022-12-18T05:19:58;-2.2;94
29173;DHT22;16223;47.966;-1.616;2022-12-18T05:20:59;-2.2;94
29173;DHT22;16223;47.966;-1.616;2022-12-18T05:21:58;-2.2;94
29173;DHT22;16223;47.966;-1.616;2022-12-18T05:22:59;-2.2;94
29173;DHT22;16223;47.966;-1.616;2022-12-18T05:23:59;-2.2;94
29173;DHT22;16223;47.966;-1.616;2022-12-18T05:24:59;-2.2;94
29173;DHT22;16223;47.966;-1.616;2022-12-18T05:26:00;-2.2;94
29173;DHT22;16223;47.966;-1.616;2022-12-18T05:26:59;-2.2;94
29173;DHT22;16223;47.966;-1.616;2022-12-18T05:27:58;-2.2;94
29173;DHT22;16223;47.966;-1.616;2022-12-18T05:28:58;-2.2;94
29173;DHT22;16223;47.966;-1.616;2022-12-18T05:29:58;-2.2;94
29173;DHT22;16223;47.966;-1.616;2022-12-18T05:31:00;-2.2;94
29173;DHT22;16223;47.966;-1.616;2022-12-18T05:31:58;-2.2;94
29173;DHT22;16223;47.966;-1.616;2022-12-18T05:32:58;-2.2;94
29173;DHT22;16223;47.966;-1.616;2022-12-18T05:33:59;-2.2;94
29173;DHT22;16223;47.966;-1.616;2022-12-18T05:34:58;-2.2;94
29173;DHT22;16223;47.966;-1.616;2022-12-18T05:36:00;-2.2;94
29173;DHT22;16223;47.966;-1.616;2022-12-18T05:36:58;-2.2;94
29173;DHT22;16223;47.966;-1.616;2022-12-18T05:37:59;-2.2;94
29173;DHT22;16223;47.966;-1.616;2022-12-18T05:38:58;-2.2;94
29173;DHT22;16223;47.966;-1.616;2022-12-18T05:39:58;-2.2;94
29173;DHT22;16223;47.966;-1.616;2022-12-18T05:40:58;-2.2;94
29173;DHT22;16223;47.966;-1.616;2022-12-18T05:41:59;-2.2;94
29173;DHT22;16223;47.966;-1.616;2022-12-18T05:42:58;-2.2;94
29173;DHT22;16223;47.966;-1.616;2022-12-18T05:43:59;-2.2;94
29173;DHT22;16223;47.966;-1.616;2022-12-18T05:44:58;-2.2;94
29173;DHT22;16223;47.966;-1.616;2022-12-18T05:46:02;-2.2;94
29173;DHT22;16223;47.966;-1.616;2022-12-18T05:46:59;-2.2;94
29173;DHT22;16223;47.966;-1.616;2022-12-18T05:47:59;-2.2;94
29173;DHT22;16223;47.966;-1.616;2022-12-18T05:49:01;-2.2;94
29173;DHT22;16223;47.966;-1.616;2022-12-18T05:49:58;-2.2;94
29173;DHT22;16223;47.966;-1.616;2022-12-18T05:51:05;-2.2;94
29173;DHT22;16223;47.966;-1.616;2022-12-18T05:51:59;-2.2;94
29173;DHT22;16223;47.966;-1.616;2022-12-18T05:52:58;-2.2;94
29173;DHT22;16223;47.966;-1.616;2022-12-18T05:53:58;-2.2;94
29173;DHT22;16223;47.966;-1.616;2022-12-18T05:54:58;-2.2;94
29173;DHT22;16223;47.966;-1.616;2022-12-18T05:56:02;-2.2;94
29173;DHT22;16223;47.966;-1.616;2022-12-18T05:56:58;-2.2;94
29173;DHT22;16223;47.966;-1.616;2022-12-18T05:57:58;-2.2;94
29173;DHT22;16223;47.966;-1.616;2022-12-18T05:58:59;-1.8;94
29173;DHT22;16223;47.966;-1.616;2022-12-18T05:59:59;-1.8;94
29173;DHT22;16223;47.966;-1.616;2022-12-18T06:01:05;-1.8;94
29173;DHT22;16223;47.966;-1.616;2022-12-18T06:01:58;-1.8;94
29173;DHT22;16223;47.966;-1.616;2022-12-18T06:02:59;-1.8;94
29173;DHT22;16223;47.966;-1.616;2022-12-18T06:03:58;-1.8;94
29173;DHT22;16223;47.966;-1.616;2022-12-18T06:04:59;-1.8;94
29173;DHT22;16223;47.966;-1.616;2022-12-18T06:05:59;-1.8;94
29173;DHT22;16223;47.966;-1.616;2022-12-18T06:06:59;-1.8;94
29173;DHT22;16223;47.966;-1.616;2022-12-18T06:07:58;-1.8;94
29173;DHT22;16223;47.966;-1.616;2022-12-18T06:08:59;-1.8;94
29173;DHT22;16223;47.966;-1.616;2022-12-18T06:09:59;-1.8;94
29173;DHT22;16223;47.966;-1.616;2022-12-18T06:10:59;-1.8;94
29173;DHT22;16223;47.966;-1.616;2022-12-18T06:11:58;-1.8;94
29173;DHT22;16223;47.966;-1.616;2022-12-18T06:12:59;-1.8;94
29173;DHT22;16223;47.966;-1.616;2022-12-18T06:13:59;-1.8;94
29173;DHT22;16223;47.966;-1.616;2022-12-18T06:14:58;-1.8;94
29173;DHT22;16223;47.966;-1.616;2022-12-18T06:15:59;-1.8;94
29173;DHT22;16223;47.966;-1.616;2022-12-18T06:16:58;-1.8;94
29173;DHT22;16223;47.966;-1.616;2022-12-18T06:18:00;-1.8;94
29173;DHT22;16223;47.966;-1.616;2022-12-18T06:18:59;-1.8;94
29173;DHT22;16223;47.966;-1.616;2022-12-18T06:19:59;-1.8;94
29173;DHT22;16223;47.966;-1.616;2022-12-18T06:20:58;-1.8;94
29173;DHT22;16223;47.966;-1.616;2022-12-18T06:21:58;-1.8;94
29173;DHT22;16223;47.966;-1.616;2022-12-18T06:22:58;-1.8;94
29173;DHT22;16223;47.966;-1.616;2022-12-18T06:23:59;-1.8;94
29173;DHT22;16223;47.966;-1.616;2022-12-18T06:24:59;-1.8;94
29173;DHT22;16223;47.966;-1.616;2022-12-18T06:26:02;-1.8;94
29173;DHT22;16223;47.966;-1.616;2022-12-18T06:26:58;-1.8;94
29173;DHT22;16223;47.966;-1.616;2022-12-18T06:27:58;-1.8;94
29173;DHT22;16223;47.966;-1.616;2022-12-18T06:28:58;-1.8;94
29173;DHT22;16223;47.966;-1.616;2022-12-18T06:29:57;-1.8;94
29173;DHT22;16223;47.966;-1.616;2022-12-18T06:30:58;-1.8;94
29173;DHT22;16223;47.966;-1.616;2022-12-18T06:31:58;-1.8;94
29173;DHT22;16223;47.966;-1.616;2022-12-18T06:32:59;-1.8;94
29173;DHT22;16223;47.966;-1.616;2022-12-18T06:33:58;-1.8;94
29173;DHT22;16223;47.966;-1.616;2022-12-18T06:34:58;-1.8;94
29173;DHT22;16223;47.966;-1.616;2022-12-18T06:36:02;-1.8;94
29173;DHT22;16223;47.966;-1.616;2022-12-18T06:36:59;-1.2;94
29173;DHT22;16223;47.966;-1.616;2022-12-18T06:37:58;-1.2;94